Time;durP1;ratioP1;P1;durP2;ratioP2;P2;SDS_P1;SDS_P2;PMS_P1;PMS_P2;Temp;Humidity;BMP_temperature;BMP_pressure;BME280_temperature;BME280_humidity;BME280_pressure;Samples;Min_cycle;Max_cycle;Signal;HPM_P1;HPM_P2
2022/12/08 12:41:26;;;;;;;16.75;9.83;;;9.00;92.70;;;;;;1917562;75;21090;-53
2022/12/08 12:44:10;;;;;;;10.90;8.23;;;9.00;92.80;;;;;;1917790;74;21023;-57
2022/12/08 12:46:52;;;;;;;18.73;9.60;;;9.00;92.90;;;;;;1916439;75;21062;-54
2022/12/08 12:49:42;;;;;;;9.18;7.40;;;9.00;93.00;;;;;;1917586;75;21426;-49
2022/12/08 12:52:19;;;;;;;11.25;7.65;;;9.00;93.00;;;;;;1917767;75;21015;-51
2022/12/08 12:54:54;;;;;;;10.95;7.62;;;8.90;93.00;;;;;;1917834;75;21164;-52
2022/12/08 12:57:28;;;;;;;11.22;7.33;;;8.90;93.10;;;;;;1917833;75;21144;-50
2022/12/08 13:00:03;;;;;;;13.30;9.13;;;8.90;93.10;;;;;;1917162;74;21015;-50
2022/12/08 13:02:41;;;;;;;14.80;8.63;;;8.90;93.10;;;;;;1917893;75;21065;-48
2022/12/08 13:05:16;;;;;;;15.78;7.50;;;8.90;93.00;;;;;;1917443;74;21092;-51
2022/12/08 13:08:03;;;;;;;12.80;8.23;;;8.90;92.90;;;;;;1918041;74;21039;-49
2022/12/08 13:10:38;;;;;;;15.05;7.62;;;8.90;93.00;;;;;;1917615;75;21461;-50
2022/12/08 13:13:15;;;;;;;12.85;7.62;;;8.90;93.10;;;;;;1914397;74;21043;-49
2022/12/08 13:16:11;;;;;;;13.55;9.23;;;8.90;93.00;;;;;;1917798;75;21050;-48
2022/12/08 13:18:48;;;;;;;14.25;9.35;;;8.90;93.00;;;;;;1918293;74;21088;-54
2022/12/08 13:21:20;;;;;;;16.37;9.38;;;8.90;92.90;;;;;;1918460;75;21074;-48
2022/12/08 13:23:52;;;;;;;13.75;8.88;;;8.80;92.80;;;;;;1918335;75;21499;-48
2022/12/08 13:26:23;;;;;;;20.43;8.85;;;8.80;92.60;;;;;;1915085;74;21097;-48
2022/12/08 13:29:04;;;;;;;27.00;10.28;;;8.80;92.60;;;;;;1918345;75;21011;-48
2022/12/08 13:31:38;;;;;;;32.75;13.25;;;8.70;92.80;;;;;;1918461;75;21523;-48
2022/12/08 13:34:16;;;;;;;46.35;21.37;;;8.70;92.80;;;;;;1918449;75;21085;-48
2022/12/08 13:36:53;;;;;;;42.25;18.87;;;8.60;92.80;;;;;;1916997;75;21060;-48
2022/12/08 13:39:28;;;;;;;20.92;13.53;;;8.60;92.80;;;;;;1905864;74;21047;-48
2022/12/08 13:42:00;;;;;;;21.02;11.55;;;8.50;92.80;;;;;;1906165;74;21003;-48
2022/12/08 13:44:48;;;;;;;16.23;11.10;;;8.50;92.80;;;;;;1906077;74;21055;-48
2022/12/08 13:47:24;;;;;;;25.35;11.38;;;8.40;92.70;;;;;;1906045;75;21043;-49
2022/12/08 13:50:01;;;;;;;19.52;10.55;;;8.30;92.80;;;;;;1905526;74;21477;-48
2022/12/08 13:52:48;;;;;;;23.98;11.10;;;8.30;92.70;;;;;;1905422;75;21397;-49
2022/12/08 13:55:20;;;;;;;21.37;11.33;;;8.20;92.80;;;;;;1905497;75;21019;-49
2022/12/08 13:57:50;;;;;;;20.10;10.48;;;8.20;92.90;;;;;;1904104;74;21094;-52
2022/12/08 14:00:21;;;;;;;27.45;12.37;;;8.20;93.00;;;;;;1905345;74;21149;-48
2022/12/08 14:02:53;;;;;;;20.82;11.83;;;8.20;92.80;;;;;;1905451;75;21061;-47
2022/12/08 14:05:25;;;;;;;27.55;15.83;;;8.10;92.50;;;;;;1905397;75;21043;-48
2022/12/08 14:07:56;;;;;;;27.45;14.38;;;8.10;92.50;;;;;;1905465;75;21083;-49
2022/12/08 14:10:30;;;;;;;29.55;14.55;;;8.00;92.60;;;;;;1905453;75;21074;-48
2022/12/08 14:13:05;;;;;;;23.47;15.28;;;8.00;92.80;;;;;;1905466;75;21012;-48
2022/12/08 14:15:35;;;;;;;30.30;15.55;;;8.00;92.80;;;;;;1905442;75;21082;-47
2022/12/08 14:18:04;;;;;;;22.42;14.25;;;7.90;92.80;;;;;;1905276;74;20999;-47
2022/12/08 14:20:35;;;;;;;22.73;13.72;;;7.90;92.80;;;;;;1905277;75;21019;-47
2022/12/08 14:23:07;;;;;;;29.00;15.10;;;7.90;92.80;;;;;;1905302;75;21058;-49
2022/12/08 14:25:37;;;;;;;22.77;12.85;;;7.80;92.80;;;;;;1905339;75;21077;-48
2022/12/08 14:28:06;;;;;;;21.80;13.43;;;7.80;92.80;;;;;;1905375;75;20995;-47
2022/12/08 14:30:37;;;;;;;24.10;12.58;;;7.80;92.90;;;;;;1905352;75;21503;-47
2022/12/08 14:33:07;;;;;;;22.27;12.33;;;7.70;92.90;;;;;;1905286;75;21019;-48
2022/12/08 14:35:38;;;;;;;24.47;12.40;;;7.70;93.10;;;;;;1905145;75;21032;-49
2022/12/08 14:38:15;;;;;;;26.35;13.13;;;7.70;93.10;;;;;;1913553;74;21039;-48
2022/12/08 14:40:50;;;;;;;28.73;13.22;;;7.80;93.10;;;;;;1924676;74;21116;-47
2022/12/08 14:43:22;;;;;;;24.72;12.60;;;7.80;93.10;;;;;;1923846;74;21015;-48
2022/12/08 14:45:54;;;;;;;25.75;12.78;;;7.80;93.10;;;;;;1924343;74;21108;-49
2022/12/08 14:48:25;;;;;;;24.82;13.85;;;7.80;93.00;;;;;;1924591;74;21062;-49
2022/12/08 14:51:03;;;;;;;22.35;12.93;;;7.80;93.00;;;;;;1924822;74;21437;-48
2022/12/08 14:53:41;;;;;;;22.35;12.18;;;7.80;92.70;;;;;;1924657;74;21042;-49
2022/12/08 14:56:22;;;;;;;26.93;13.22;;;7.80;92.70;;;;;;1924642;74;21035;-49
2022/12/08 14:59:09;;;;;;;23.10;12.28;;;7.70;92.80;;;;;;1924377;74;21445;-49
2022/12/08 15:01:39;;;;;;;24.85;12.70;;;7.70;93.00;;;;;;1924586;74;21038;-50
2022/12/08 15:04:18;;;;;;;23.10;11.65;;;7.60;93.00;;;;;;1914880;74;21014;-46
2022/12/08 15:07:12;;;;;;;23.12;11.38;;;7.60;93.00;;;;;;1909456;74;21561;-48
2022/12/08 15:09:44;;;;;;;22.83;11.17;;;7.60;92.90;;;;;;1891808;76;21094;-47
2022/12/08 15:12:16;;;;;;;21.70;11.20;;;7.60;93.00;;;;;;1891508;75;21078;-51
2022/12/08 15:14:56;;;;;;;39.20;15.23;;;7.60;93.00;;;;;;1891495;76;21071;-47
2022/12/08 15:17:50;;;;;;;68.07;21.10;;;7.60;93.20;;;;;;1891498;76;21579;-47
2022/12/08 15:20:40;;;;;;;33.23;16.62;;;7.60;92.90;;;;;;1891181;75;21064;-49
2022/12/08 15:23:24;;;;;;;32.75;13.68;;;7.50;92.90;;;;;;1891535;76;21114;-49
2022/12/08 15:25:54;;;;;;;37.07;13.90;;;7.50;93.00;;;;;;1891875;75;21052;-48
2022/12/08 15:28:26;;;;;;;41.40;16.65;;;7.50;93.00;;;;;;1891613;75;21020;-50
2022/12/08 15:30:56;;;;;;;29.07;13.32;;;7.50;93.10;;;;;;1891446;76;21080;-49
2022/12/08 15:33:26;;;;;;;41.30;15.35;;;7.50;93.10;;;;;;1891512;76;21133;-50
2022/12/08 15:35:55;;;;;;;49.30;19.20;;;7.40;93.00;;;;;;1891584;76;21125;-49
2022/12/08 15:38:30;;;;;;;48.55;17.75;;;7.50;93.10;;;;;;1888602;76;21154;-47
2022/12/08 15:41:01;;;;;;;46.42;16.65;;;7.50;93.00;;;;;;1882401;75;21041;-48
2022/12/08 15:43:31;;;;;;;42.83;23.32;;;7.50;93.10;;;;;;1882355;76;21109;-48
2022/12/08 15:46:00;;;;;;;54.95;24.98;;;7.50;93.10;;;;;;1882279;76;21004;-47
2022/12/08 15:48:31;;;;;;;48.48;24.50;;;7.50;93.10;;;;;;1882212;76;21099;-50
2022/12/08 15:51:00;;;;;;;51.45;26.27;;;7.50;93.10;;;;;;1881699;76;21580;-48
2022/12/08 15:53:29;;;;;;;58.92;26.82;;;7.40;93.10;;;;;;1882198;76;21017;-47
2022/12/08 15:56:01;;;;;;;54.13;26.00;;;7.40;93.10;;;;;;1882331;76;21108;-48
2022/12/08 15:58:31;;;;;;;56.77;28.65;;;7.40;93.10;;;;;;1882222;76;21082;-49
2022/12/08 16:01:00;;;;;;;60.60;26.55;;;7.40;93.10;;;;;;1882246;75;21086;-52
2022/12/08 16:03:31;;;;;;;57.67;25.60;;;7.40;93.10;;;;;;1882296;76;21098;-49
2022/12/08 16:06:00;;;;;;;76.00;31.77;;;7.40;93.10;;;;;;1882238;76;21013;-49
2022/12/08 16:08:30;;;;;;;62.70;27.40;;;7.40;93.20;;;;;;1882251;76;21052;-48
2022/12/08 16:13:53;;;;;;;61.13;30.12;;;7.30;93.20;;;;;;1882273;76;21040;-47
2022/12/08 16:16:27;;;;;;;49.10;28.20;;;7.30;93.20;;;;;;1882213;75;21108;-48
2022/12/08 16:18:57;;;;;;;60.15;27.05;;;7.30;93.20;;;;;;1913463;75;21039;-50
2022/12/08 16:21:26;;;;;;;52.10;26.33;;;7.30;93.40;;;;;;1882314;76;21153;-49
2022/12/08 16:23:55;;;;;;;50.48;24.37;;;7.40;93.20;;;;;;1882147;76;21133;-48
2022/12/08 16:26:24;;;;;;;59.13;28.62;;;7.40;93.20;;;;;;1882163;76;21045;-51
2022/12/08 16:28:53;;;;;;;113.88;42.58;;;7.40;93.10;;;;;;1881507;76;21103;-49
2022/12/08 16:31:23;;;;;;;77.70;32.65;;;7.30;93.00;;;;;;1882321;76;21044;-49
2022/12/08 16:33:52;;;;;;;61.25;30.62;;;7.30;93.00;;;;;;1882312;76;21169;-49
2022/12/08 16:36:21;;;;;;;82.42;42.17;;;7.20;93.00;;;;;;1882276;76;21082;-48
2022/12/08 16:38:50;;;;;;;76.77;40.33;;;7.10;93.00;;;;;;1880113;76;21052;-47
2022/12/08 16:44:07;;;;;;;51.13;27.98;;;7.00;93.20;;;;;;1872846;77;21049;-48
2022/12/08 16:46:36;;;;;;;48.42;26.15;;;6.90;93.20;;;;;;1872732;77;21040;-50
2022/12/08 16:49:08;;;;;;;56.42;26.70;;;6.90;93.30;;;;;;1872716;77;21149;-48
2022/12/08 16:51:37;;;;;;;49.13;26.93;;;6.90;93.30;;;;;;1872643;76;21024;-49
2022/12/08 16:54:06;;;;;;;58.08;28.10;;;6.90;93.40;;;;;;1872716;77;21028;-48
2022/12/08 16:56:36;;;;;;;47.73;25.70;;;6.90;93.30;;;;;;1872713;76;21068;-51
2022/12/08 16:59:05;;;;;;;47.67;25.37;;;6.90;93.30;;;;;;1872905;77;21107;-48
2022/12/08 17:01:34;;;;;;;45.33;25.88;;;6.80;93.30;;;;;;1872711;77;21021;-49
2022/12/08 17:04:03;;;;;;;57.65;27.82;;;6.80;93.10;;;;;;1872776;77;21455;-51
2022/12/08 17:06:33;;;;;;;45.08;25.65;;;6.70;93.20;;;;;;1872831;77;21025;-48
2022/12/08 17:09:03;;;;;;;45.50;24.37;;;6.70;93.20;;;;;;1872825;77;20996;-48
2022/12/08 17:11:32;;;;;;;51.42;25.92;;;6.60;93.30;;;;;;1872830;77;21041;-48
2022/12/08 17:14:01;;;;;;;46.18;26.20;;;6.60;93.40;;;;;;1872690;77;21009;-51
2022/12/08 17:16:31;;;;;;;50.12;26.60;;;6.60;93.40;;;;;;1872691;77;21082;-48
2022/12/08 17:19:00;;;;;;;50.60;27.67;;;6.60;93.40;;;;;;1872648;77;21024;-49
2022/12/08 17:21:29;;;;;;;51.65;25.88;;;6.60;93.40;;;;;;1872704;77;21044;-49
2022/12/08 17:23:58;;;;;;;53.50;25.92;;;6.60;93.40;;;;;;1872797;76;21017;-48
2022/12/08 17:26:28;;;;;;;50.08;27.62;;;6.50;93.40;;;;;;1872863;77;21134;-49
2022/12/08 17:28:57;;;;;;;42.43;25.27;;;6.60;93.40;;;;;;1872768;77;21408;-47
2022/12/08 17:31:26;;;;;;;43.15;26.35;;;6.50;93.40;;;;;;1872904;77;21110;-49
2022/12/08 17:33:57;;;;;;;52.35;28.20;;;6.60;93.40;;;;;;1872849;77;21064;-49
2022/12/08 17:36:26;;;;;;;58.55;30.20;;;6.50;93.20;;;;;;1872981;76;21040;-49
2022/12/08 17:38:56;;;;;;;64.40;32.30;;;6.50;93.30;;;;;;1872791;77;21036;-49
2022/12/08 17:41:25;;;;;;;71.62;35.03;;;6.50;93.30;;;;;;1885035;76;21012;-48
2022/12/08 17:43:54;;;;;;;52.85;28.62;;;6.50;93.40;;;;;;1885072;76;21008;-49
2022/12/08 17:46:24;;;;;;;50.90;27.93;;;6.40;93.30;;;;;;1885069;75;21017;-51
2022/12/08 17:48:55;;;;;;;47.08;25.17;;;6.40;93.40;;;;;;1885066;76;21021;-49
2022/12/08 17:51:24;;;;;;;58.05;27.10;;;6.40;93.40;;;;;;1885061;76;21049;-49
2022/12/08 17:53:53;;;;;;;66.42;31.48;;;6.50;93.40;;;;;;1885148;76;21078;-50
2022/12/08 17:56:22;;;;;;;50.00;28.38;;;6.40;93.40;;;;;;1885198;75;20993;-47
2022/12/08 17:58:52;;;;;;;83.05;29.70;;;6.40;93.30;;;;;;1885032;76;21580;-49
2022/12/08 18:01:21;;;;;;;51.65;29.63;;;6.30;93.30;;;;;;1885106;76;21115;-48
2022/12/08 18:03:51;;;;;;;71.47;29.95;;;6.30;93.30;;;;;;1885167;76;21074;-50
2022/12/08 18:06:21;;;;;;;52.62;27.82;;;6.30;93.40;;;;;;1885183;76;21090;-50
2022/12/08 18:08:50;;;;;;;50.80;29.87;;;6.20;93.40;;;;;;1885054;76;20992;-48
2022/12/08 18:11:20;;;;;;;43.65;25.10;;;6.30;93.40;;;;;;1885049;76;21091;-49
2022/12/08 18:13:50;;;;;;;51.02;27.90;;;6.20;93.40;;;;;;1885156;76;21017;-49
2022/12/08 18:16:21;;;;;;;60.00;30.15;;;6.20;93.40;;;;;;1885177;76;21013;-48
2022/12/08 18:18:51;;;;;;;55.98;28.92;;;6.20;93.30;;;;;;1885066;76;20992;-50
2022/12/08 18:21:20;;;;;;;62.90;30.60;;;6.10;93.10;;;;;;1885214;76;21016;-51
2022/12/08 18:23:50;;;;;;;58.35;30.62;;;6.10;93.30;;;;;;1885170;76;21048;-48
2022/12/08 18:26:19;;;;;;;56.55;27.87;;;6.10;93.40;;;;;;1885157;76;21074;-48
2022/12/08 18:28:48;;;;;;;52.03;27.25;;;6.00;93.30;;;;;;1885156;76;21028;-48
2022/12/08 18:31:20;;;;;;;55.92;29.48;;;6.00;93.40;;;;;;1885040;75;21118;-50
2022/12/08 18:33:50;;;;;;;59.35;30.15;;;6.00;93.40;;;;;;1885077;76;21118;-49
2022/12/08 18:36:22;;;;;;;66.15;30.15;;;6.10;93.50;;;;;;1885178;76;21090;-48
2022/12/08 18:38:53;;;;;;;56.50;29.35;;;6.10;93.50;;;;;;1885145;76;21020;-49
2022/12/08 18:41:24;;;;;;;58.55;29.35;;;6.10;93.50;;;;;;1876262;76;21056;-47
2022/12/08 18:43:55;;;;;;;55.80;28.83;;;6.10;93.50;;;;;;1872793;77;21471;-47
2022/12/08 18:46:25;;;;;;;53.13;28.62;;;6.10;93.40;;;;;;1872826;77;20984;-49
2022/12/08 18:48:54;;;;;;;56.20;27.50;;;6.10;93.40;;;;;;1872806;76;21029;-50
2022/12/08 18:51:23;;;;;;;64.05;30.45;;;6.00;93.40;;;;;;1872900;77;21463;-48
2022/12/08 18:53:53;;;;;;;65.40;30.17;;;6.00;93.40;;;;;;1872811;77;21037;-49
2022/12/08 18:56:27;;;;;;;54.60;28.05;;;6.00;93.40;;;;;;1872855;76;21025;-49
2022/12/08 18:58:58;;;;;;;59.23;29.73;;;6.00;93.40;;;;;;1873152;77;21013;-47
2022/12/08 19:01:28;;;;;;;54.05;28.80;;;6.00;93.40;;;;;;1872928;77;21271;-47
2022/12/08 19:03:59;;;;;;;53.08;27.77;;;6.00;93.30;;;;;;1872952;77;21037;-48
2022/12/08 19:06:29;;;;;;;47.53;27.25;;;6.00;93.20;;;;;;1872933;77;21086;-48
2022/12/08 19:08:58;;;;;;;44.10;26.87;;;5.90;93.30;;;;;;1872873;77;21017;-50
2022/12/08 19:11:29;;;;;;;48.30;29.50;;;5.90;93.40;;;;;;1873011;76;21044;-48
2022/12/08 19:13:58;;;;;;;52.83;27.40;;;5.90;93.40;;;;;;1872821;77;21083;-48
2022/12/08 19:16:27;;;;;;;46.90;27.15;;;6.00;93.50;;;;;;1872808;77;21049;-50
2022/12/08 19:18:57;;;;;;;49.38;25.92;;;6.00;93.40;;;;;;1872771;77;21076;-48
2022/12/08 19:21:26;;;;;;;45.52;27.52;;;6.00;93.40;;;;;;1872807;76;21130;-48
2022/12/08 19:23:57;;;;;;;40.52;24.35;;;6.00;93.30;;;;;;1872794;77;21125;-50
2022/12/08 19:26:27;;;;;;;42.93;23.92;;;5.90;93.20;;;;;;1873027;77;21056;-50
2022/12/08 19:28:57;;;;;;;38.83;22.70;;;5.90;93.20;;;;;;1872838;77;21052;-48
2022/12/08 19:31:26;;;;;;;40.67;23.35;;;5.80;93.20;;;;;;1872776;77;21056;-48
2022/12/08 19:33:56;;;;;;;47.53;24.67;;;5.80;93.30;;;;;;1872737;77;21091;-48
2022/12/08 19:36:26;;;;;;;45.15;25.40;;;5.80;93.30;;;;;;1872809;77;21115;-48
2022/12/08 19:47:05;;;;;;;42.33;22.62;;;5.80;93.50;;;;;;1882244;76;21055;-48
2022/12/08 19:49:34;;;;;;;34.73;19.12;;;5.80;93.40;;;;;;1882293;75;21016;-49
2022/12/08 19:52:04;;;;;;;40.73;22.32;;;5.80;93.30;;;;;;1882266;76;21082;-49
2022/12/08 19:54:33;;;;;;;33.00;20.57;;;5.80;93.30;;;;;;1882245;76;21024;-48
2022/12/08 19:57:03;;;;;;;33.92;23.12;;;5.70;93.30;;;;;;1882244;76;21024;-48
2022/12/08 19:59:32;;;;;;;34.98;19.37;;;5.70;93.30;;;;;;1882189;76;21102;-49
2022/12/08 20:02:01;;;;;;;31.87;20.75;;;5.80;93.30;;;;;;1882257;76;21060;-48
2022/12/08 20:04:31;;;;;;;37.08;20.92;;;5.70;93.20;;;;;;1882251;76;21064;-48
2022/12/08 20:07:00;;;;;;;33.88;21.05;;;5.70;93.20;;;;;;1882536;76;21110;-48
2022/12/08 20:09:30;;;;;;;41.08;20.77;;;5.70;93.30;;;;;;1882153;76;21048;-47
2022/12/08 20:11:59;;;;;;;35.50;20.65;;;5.70;93.30;;;;;;1882232;76;21020;-48
2022/12/08 20:14:28;;;;;;;48.55;22.42;;;5.70;93.30;;;;;;1882242;76;21020;-50
2022/12/08 20:16:57;;;;;;;56.70;26.17;;;5.70;93.30;;;;;;1882242;76;21114;-49
2022/12/08 20:19:26;;;;;;;41.63;21.85;;;5.70;93.20;;;;;;1882306;76;21157;-48
2022/12/08 20:21:56;;;;;;;48.48;22.75;;;5.60;93.20;;;;;;1882319;76;21508;-47
2022/12/08 20:24:25;;;;;;;39.55;20.90;;;5.60;93.30;;;;;;1882240;76;21028;-48
2022/12/08 20:26:54;;;;;;;39.18;20.80;;;5.60;93.40;;;;;;1882271;76;21024;-47
2022/12/08 20:29:24;;;;;;;38.48;19.45;;;5.60;93.40;;;;;;1882166;76;21101;-48
2022/12/08 20:31:53;;;;;;;30.05;18.87;;;5.60;93.30;;;;;;1882250;76;21024;-48
2022/12/08 20:34:22;;;;;;;31.48;16.60;;;5.60;93.30;;;;;;1882167;76;21012;-49
2022/12/08 20:36:51;;;;;;;33.48;17.77;;;5.60;93.40;;;;;;1882261;76;21020;-49
2022/12/08 20:39:20;;;;;;;29.27;17.50;;;5.60;93.40;;;;;;1882168;76;21028;-50
2022/12/08 20:41:50;;;;;;;25.57;16.42;;;5.60;93.40;;;;;;1882276;75;21560;-49
2022/12/08 20:44:20;;;;;;;34.78;17.57;;;5.70;93.40;;;;;;1882211;76;21443;-49
2022/12/08 20:46:49;;;;;;;27.48;17.75;;;5.60;93.30;;;;;;1882273;76;21008;-49
2022/12/08 20:49:18;;;;;;;30.15;16.75;;;5.60;93.20;;;;;;1882315;76;21200;-47
2022/12/08 20:51:47;;;;;;;22.62;15.68;;;5.60;93.20;;;;;;1882324;76;21083;-49
2022/12/08 20:54:17;;;;;;;23.75;15.95;;;5.60;93.30;;;;;;1882178;76;21047;-48
2022/12/08 20:56:46;;;;;;;22.90;16.35;;;5.50;93.10;;;;;;1882332;76;21020;-49
2022/12/08 20:59:19;;;;;;;28.30;16.45;;;5.50;93.30;;;;;;1882279;76;21043;-48
2022/12/08 21:01:48;;;;;;;27.05;15.35;;;5.50;93.30;;;;;;1882486;76;21463;-48
2022/12/08 21:04:17;;;;;;;28.50;16.07;;;5.40;93.30;;;;;;1882294;76;21087;-50
2022/12/08 21:06:46;;;;;;;25.85;15.68;;;5.50;93.40;;;;;;1882339;76;21117;-49
2022/12/08 21:09:16;;;;;;;28.07;16.73;;;5.50;93.40;;;;;;1882414;76;21121;-47
2022/12/08 21:11:45;;;;;;;24.92;16.85;;;5.50;93.40;;;;;;1882406;76;21105;-49
2022/12/08 21:14:14;;;;;;;26.48;16.30;;;5.40;93.20;;;;;;1882281;76;21094;-49
2022/12/08 21:16:43;;;;;;;27.98;16.52;;;5.40;93.30;;;;;;1882375;76;21052;-47
2022/12/08 21:19:12;;;;;;;26.65;16.77;;;5.40;93.40;;;;;;1882286;76;21108;-48
2022/12/08 21:21:42;;;;;;;27.02;16.45;;;5.40;93.50;;;;;;1882391;76;21024;-49
2022/12/08 21:24:11;;;;;;;27.13;15.65;;;5.40;93.40;;;;;;1882313;76;21082;-48
2022/12/08 21:26:40;;;;;;;28.35;17.23;;;5.40;93.30;;;;;;1882306;76;21000;-49
2022/12/08 21:29:10;;;;;;;27.15;16.25;;;5.40;93.30;;;;;;1882309;76;21024;-48
2022/12/08 21:31:40;;;;;;;29.05;15.98;;;5.40;93.40;;;;;;1882395;76;21040;-48
2022/12/08 21:34:09;;;;;;;28.62;15.70;;;5.40;93.40;;;;;;1882295;76;21036;-49
2022/12/08 21:36:39;;;;;;;25.55;16.50;;;5.40;93.40;;;;;;1882410;76;21032;-48
2022/12/08 21:39:11;;;;;;;32.63;17.45;;;5.40;93.30;;;;;;1882275;76;21157;-47
2022/12/08 21:44:26;;;;;;;37.55;19.60;;;5.40;93.30;;;;;;1872844;77;21065;-47
2022/12/08 21:46:55;;;;;;;35.03;16.87;;;5.40;93.40;;;;;;1872887;77;21024;-52
2022/12/08 21:49:25;;;;;;;29.37;16.95;;;5.40;93.40;;;;;;1872918;77;21017;-47
2022/12/08 21:51:55;;;;;;;27.50;17.52;;;5.40;93.40;;;;;;1872949;77;21049;-48
2022/12/08 21:54:24;;;;;;;27.15;15.75;;;5.40;93.40;;;;;;1872864;76;21154;-49
2022/12/08 21:56:53;;;;;;;25.05;15.93;;;5.40;93.40;;;;;;1872954;77;21017;-52
2022/12/08 21:59:22;;;;;;;33.75;17.25;;;5.40;92.80;;;;;;1872877;76;21020;-47
2022/12/08 22:01:52;;;;;;;26.60;17.32;;;5.40;93.10;;;;;;1872923;77;21017;-49
2022/12/08 22:04:23;;;;;;;33.63;17.75;;;5.30;93.30;;;;;;1872951;77;21151;-47
2022/12/08 22:06:53;;;;;;;32.63;18.27;;;5.30;93.40;;;;;;1872961;77;21025;-47
2022/12/08 22:09:22;;;;;;;33.42;18.30;;;5.30;93.30;;;;;;1872830;76;21053;-48
2022/12/08 22:11:51;;;;;;;48.35;21.95;;;5.30;93.30;;;;;;1872952;76;20993;-49
2022/12/08 22:14:20;;;;;;;30.48;17.50;;;5.30;93.40;;;;;;1872955;77;21016;-48
2022/12/08 22:16:49;;;;;;;25.90;16.02;;;5.30;93.20;;;;;;1872960;76;21045;-48
2022/12/08 22:19:19;;;;;;;24.40;14.28;;;5.20;93.00;;;;;;1872860;76;21061;-51
2022/12/08 22:21:48;;;;;;;26.80;16.02;;;5.10;93.00;;;;;;1872771;77;21024;-50
2022/12/08 22:24:17;;;;;;;22.00;15.58;;;5.00;93.30;;;;;;1872840;77;21079;-48
2022/12/08 22:26:46;;;;;;;24.98;15.60;;;5.00;93.60;;;;;;1872850;77;20989;-49
2022/12/08 22:29:16;;;;;;;27.20;15.08;;;5.10;93.60;;;;;;1872882;76;21017;-49
2022/12/08 22:31:45;;;;;;;24.98;14.98;;;5.10;93.80;;;;;;1872881;77;21110;-47
2022/12/08 22:34:15;;;;;;;29.57;14.93;;;5.20;93.60;;;;;;1872956;77;21074;-47
2022/12/08 22:36:44;;;;;;;23.75;13.80;;;5.20;93.50;;;;;;1872854;77;21017;-48
2022/12/08 22:39:13;;;;;;;23.32;14.13;;;5.30;93.50;;;;;;1872844;77;21107;-49
2022/12/08 22:41:43;;;;;;;17.67;12.95;;;5.30;93.50;;;;;;1872793;77;20993;-47
2022/12/08 22:44:15;;;;;;;23.32;14.45;;;5.30;93.50;;;;;;1872944;77;21029;-49
2022/12/08 22:46:44;;;;;;;20.40;12.68;;;5.30;93.40;;;;;;1872851;76;21024;-47
2022/12/08 22:49:13;;;;;;;22.55;12.80;;;5.30;93.40;;;;;;1872869;76;21181;-48
2022/12/08 22:51:43;;;;;;;18.52;12.37;;;5.30;93.40;;;;;;1872778;77;21029;-47
2022/12/08 22:54:13;;;;;;;21.70;12.37;;;5.30;93.40;;;;;;1872808;77;21017;-48
2022/12/08 22:56:42;;;;;;;19.30;12.23;;;5.30;93.40;;;;;;1872824;77;21037;-49
2022/12/08 22:59:11;;;;;;;21.93;12.25;;;5.30;93.40;;;;;;1872847;77;21447;-48
2022/12/08 23:01:40;;;;;;;15.93;11.18;;;5.30;93.40;;;;;;1873037;76;21449;-49
2022/12/08 23:04:10;;;;;;;17.80;10.50;;;5.30;93.40;;;;;;1872812;76;21170;-49
2022/12/08 23:06:40;;;;;;;17.10;11.25;;;5.30;93.50;;;;;;1872802;77;21047;-47
2022/12/08 23:09:09;;;;;;;15.53;10.53;;;5.30;93.40;;;;;;1872823;77;20993;-49
2022/12/08 23:11:38;;;;;;;12.95;10.15;;;5.30;93.40;;;;;;1872789;77;21044;-48
2022/12/08 23:14:07;;;;;;;16.55;10.08;;;5.30;93.40;;;;;;1872930;77;21025;-49
2022/12/08 23:16:36;;;;;;;16.17;10.55;;;5.30;93.40;;;;;;1872849;76;21474;-48
2022/12/08 23:19:05;;;;;;;15.75;10.75;;;5.30;93.30;;;;;;1872777;76;21016;-49
2022/12/08 23:21:35;;;;;;;16.02;9.88;;;5.30;93.30;;;;;;1872794;76;21040;-47
2022/12/08 23:24:04;;;;;;;15.68;10.85;;;5.20;93.30;;;;;;1872813;76;20989;-48
2022/12/08 23:26:34;;;;;;;14.13;9.90;;;5.20;93.40;;;;;;1872836;77;21079;-47
2022/12/08 23:29:04;;;;;;;16.85;9.73;;;5.20;93.40;;;;;;1872873;77;21052;-49
2022/12/08 23:31:33;;;;;;;20.75;10.98;;;5.20;93.30;;;;;;1872874;77;21028;-48
2022/12/08 23:34:03;;;;;;;13.88;10.75;;;5.20;93.20;;;;;;1872947;76;21090;-48
2022/12/08 23:36:32;;;;;;;20.15;11.15;;;5.20;93.20;;;;;;1872807;76;21086;-49
2022/12/08 23:39:01;;;;;;;16.42;10.40;;;5.10;93.10;;;;;;1872858;77;21086;-51
2022/12/08 23:41:30;;;;;;;17.75;11.90;;;5.10;93.30;;;;;;1872793;76;21103;-48
2022/12/08 23:44:00;;;;;;;15.40;10.60;;;5.00;93.50;;;;;;1877941;76;21126;-47
2022/12/08 23:46:29;;;;;;;19.00;11.63;;;5.00;93.40;;;;;;1882276;76;21083;-48
2022/12/08 23:48:58;;;;;;;20.92;11.00;;;5.00;93.40;;;;;;1882400;76;21060;-48
2022/12/08 23:51:27;;;;;;;16.55;11.20;;;5.00;93.30;;;;;;1882364;76;21004;-49
2022/12/08 23:53:56;;;;;;;16.97;11.15;;;5.00;93.30;;;;;;1882395;76;21041;-49
2022/12/08 23:56:26;;;;;;;17.48;11.73;;;5.00;93.40;;;;;;1882308;75;21024;-49
2022/12/08 23:58:55;;;;;;;14.40;10.03;;;5.00;93.50;;;;;;1882323;76;21045;-49
